• Join FlightAware (Why Join?)
  • Login
  • US Flag 
09:09AM EDT


 

Airport Tracker/Info


-or-


 

Live Flight TrackerFlight Track Log ✈ TYR775 ✈ 22-May-2012 ✈ LOWW / VIE - LWSK / SKP

Flight Track Log - Related Links

Times and Time Zones

All times are in EDT time to prevent confusion due to time zone crossing. See the TYR775 flight status page for this flight to view local times or setup timezone preferences in your user account.

Time Position Orientation Groundspeed Altitude Reporting Facility
EDT Latitude Longitude Course Direction KTS MPH feet Rate Location/Type
04:40PM 47.9916 16.6803 148° Southeast  Level Estimated
04:41PM 47.9141 16.7522 148° Southeast  Level Estimated
04:42PM 47.8366 16.8238 148° Southeast  Level Estimated
04:43PM 47.7590 16.8952 148° Southeast  Level Estimated
04:44PM 47.6814 16.9664 148° Southeast  Level Estimated
04:45PM 47.6038 17.0374 148° Southeast  Level Estimated
04:46PM 47.5261 17.1082 148° Southeast  Level Estimated
04:47PM 47.4484 17.1788 148° Southeast  Level Estimated
04:48PM 47.3706 17.2492 149° Southeast  Level Estimated
04:49PM 47.2928 17.3193 149° Southeast  Level Estimated
04:50PM 47.2150 17.3893 149° Southeast  Level Estimated
04:51PM 47.1371 17.4590 149° Southeast  Level Estimated
04:52PM 47.0591 17.5286 149° Southeast  Level Estimated
04:53PM 46.9811 17.5979 149° Southeast  Level Estimated
04:54PM 46.9031 17.6671 149° Southeast  Level Estimated
04:55PM 46.8250 17.7360 149° Southeast  Level Estimated
04:56PM 46.7469 17.8047 149° Southeast  Level Estimated
04:57PM 46.6688 17.8733 149° Southeast  Level Estimated
04:58PM 46.5906 17.9416 149° Southeast  Level Estimated
04:59PM 46.5123 18.0098 149° Southeast  Level Estimated
05:00PM 46.4341 18.0777 149° Southeast  Level Estimated
05:01PM 46.3558 18.1455 149° Southeast  Level Estimated
05:02PM 46.2774 18.2130 149° Southeast  Level Estimated
05:03PM 46.1990 18.2804 149° Southeast  Level Estimated
05:04PM 46.1206 18.3476 149° Southeast  Level Estimated
05:05PM 46.0421 18.4146 149° Southeast  Level Estimated
05:06PM 45.9636 18.4814 149° Southeast  Level Estimated
05:07PM 45.8851 18.5480 149° Southeast  Level Estimated
05:08PM 45.8065 18.6144 150° Southeast  Level Estimated
05:09PM 45.7278 18.6806 150° Southeast  Level Estimated
05:10PM 45.6492 18.7467 150° Southeast  Level Estimated
05:11PM 45.5705 18.8125 150° Southeast  Level Estimated
05:12PM 45.4917 18.8782 150° Southeast  Level Estimated
05:13PM 45.4130 18.9437 150° Southeast  Level Estimated
05:14PM 45.3341 19.0090 150° Southeast  Level Estimated
05:15PM 45.2553 19.0741 150° Southeast  Level Estimated
05:16PM 45.1764 19.1391 150° Southeast  Level Estimated
05:17PM 45.0975 19.2038 150° Southeast  Level Estimated
05:18PM 45.0185 19.2684 150° Southeast  Level Estimated
05:19PM 44.9395 19.3328 150° Southeast  Level Estimated
05:20PM 44.8605 19.3971 150° Southeast  Level Estimated
05:21PM 44.7814 19.4611 150° Southeast  Level Estimated
05:22PM 44.7023 19.5250 150° Southeast  Level Estimated
05:23PM 44.6232 19.5887 150° Southeast  Level Estimated
05:24PM 44.5440 19.6522 150° Southeast  Level Estimated
05:25PM 44.4648 19.7156 150° Southeast  Level Estimated
05:26PM 44.3855 19.7788 150° Southeast  Level Estimated
05:27PM 44.3063 19.8418 150° Southeast  Level Estimated
05:28PM 44.2269 19.9047 150° Southeast  Level Estimated
05:29PM 44.1476 19.9673 150° Southeast  Level Estimated
05:30PM 44.0682 20.0299 151° Southeast  Level Estimated
05:31PM 43.9888 20.0922 151° Southeast  Level Estimated
05:32PM 43.9093 20.1544 151° Southeast  Level Estimated
05:33PM 43.8298 20.2164 151° Southeast  Level Estimated
05:34PM 43.7503 20.2782 151° Southeast  Level Estimated
05:35PM 43.6708 20.3399 151° Southeast  Level Estimated
05:36PM 43.5912 20.4014 151° Southeast  Level Estimated
05:37PM 43.5116 20.4628 151° Southeast  Level Estimated
05:38PM 43.4319 20.5240 151° Southeast  Level Estimated
05:39PM 43.3522 20.5850 151° Southeast  Level Estimated
05:40PM 43.2725 20.6459 151° Southeast  Level Estimated
05:41PM 43.1928 20.7066 151° Southeast  Level Estimated
05:42PM 43.1130 20.7671 151° Southeast  Level Estimated
05:43PM 43.0332 20.8275 151° Southeast  Level Estimated
05:44PM 42.9534 20.8878 151° Southeast  Level Estimated
05:45PM 42.8735 20.9478 151° Southeast  Level Estimated
05:46PM 42.7936 21.0078 151° Southeast  Level Estimated
05:47PM 42.7136 21.0676 151° Southeast  Level Estimated
05:48PM 42.6337 21.1272 151° Southeast  Level Estimated
05:49PM 42.5537 21.1866 151° Southeast  Level Estimated
05:50PM 42.4736 21.2460 151° Southeast  Level Estimated
05:51PM 42.3936 21.3051 151° Southeast  Level Estimated
05:52PM 42.3135 21.3641 151° Southeast  Level Estimated
05:53PM 42.2334 21.4230 151° Southeast  Level Estimated
05:54PM 42.1532 21.4817 152° Southeast  Level Estimated
05:55PM 42.0730 21.5403 152° Southeast  Level Estimated
05:56PM 41.9928 21.5987 152° Southeast  Level Estimated
05:57PM 41.9126 21.6570 332° Northwest  Level Estimated
05:58PM 41.9928 21.5987 152° Southeast  Level Estimated
05:59PM 41.9126 21.6570 332° Northwest  Level Estimated
06:00PM 41.9928 21.5987 152° Southeast  Level Estimated
06:01PM 41.9126 21.6570 332° Northwest  Level Estimated
06:02PM 41.9928 21.5987 152° Southeast  Level Estimated
06:03PM 41.9126 21.6570 332° Northwest  Level Estimated
06:04PM 41.9928 21.5987 152° Southeast  Level Estimated
06:05PM 41.9126 21.6570 332° Northwest  Level Estimated
06:06PM 41.9928 21.5987 152° Southeast  Level Estimated
06:07PM 41.9126 21.6570 332° Northwest  Level Estimated
06:08PM 41.9928 21.5987 332° Northwest  Level Estimated